sensor_id;sensor_type;location;lat;lon;timestamp;pressure;altitude;pressure_sealevel;temperature;humidity
75555;BME280;66087;53.126;17.960;2023-04-08T00:02:24;101342.30;;;7.71;84.17
75555;BME280;66087;53.126;17.960;2023-04-08T00:04:51;101344.68;;;7.71;84.25
75555;BME280;66087;53.126;17.960;2023-04-08T00:07:17;101343.98;;;7.71;83.94
75555;BME280;66087;53.126;17.960;2023-04-08T00:09:44;101347.48;;;7.72;83.99
75555;BME280;66087;53.126;17.960;2023-04-08T00:12:10;101350.89;;;7.72;84.08
75555;BME280;66087;53.126;17.960;2023-04-08T00:14:37;101349.98;;;7.73;84.05
75555;BME280;66087;53.126;17.960;2023-04-08T00:17:03;101351.84;;;7.75;83.95
75555;BME280;66087;53.126;17.960;2023-04-08T00:19:31;101356.56;;;7.74;83.89
75555;BME280;66087;53.126;17.960;2023-04-08T00:21:57;101352.07;;;7.73;83.85
75555;BME280;66087;53.126;17.960;2023-04-08T00:24:24;101359.25;;;7.73;83.90
75555;BME280;66087;53.126;17.960;2023-04-08T00:26:51;101361.25;;;7.72;83.55
75555;BME280;66087;53.126;17.960;2023-04-08T00:29:18;101364.27;;;7.72;83.51
75555;BME280;66087;53.126;17.960;2023-04-08T00:31:44;101368.36;;;7.72;83.39
75555;BME280;66087;53.126;17.960;2023-04-08T00:34:11;101371.71;;;7.73;83.23
75555;BME280;66087;53.126;17.960;2023-04-08T00:36:38;101368.23;;;7.73;83.39
75555;BME280;66087;53.126;17.960;2023-04-08T00:39:05;101370.39;;;7.72;83.25
75555;BME280;66087;53.126;17.960;2023-04-08T00:41:33;101371.14;;;7.71;83.41
75555;BME280;66087;53.126;17.960;2023-04-08T00:44:01;101374.36;;;7.68;83.44
75555;BME280;66087;53.126;17.960;2023-04-08T00:46:30;101373.02;;;7.65;83.32
75555;BME280;66087;53.126;17.960;2023-04-08T00:49:01;101374.05;;;7.61;83.44
75555;BME280;66087;53.126;17.960;2023-04-08T00:51:29;101376.45;;;7.54;83.67
75555;BME280;66087;53.126;17.960;2023-04-08T00:53:56;101379.05;;;7.45;83.71
75555;BME280;66087;53.126;17.960;2023-04-08T00:56:23;101385.64;;;7.40;83.75
75555;BME280;66087;53.126;17.960;2023-04-08T00:58:50;101390.55;;;7.37;83.69
75555;BME280;66087;53.126;17.960;2023-04-08T01:01:32;101388.95;;;7.33;83.78
75555;BME280;66087;53.126;17.960;2023-04-08T01:04:24;101391.91;;;7.28;83.79
75555;BME280;66087;53.126;17.960;2023-04-08T01:07:06;101394.13;;;7.21;83.91
75555;BME280;66087;53.126;17.960;2023-04-08T01:09:38;101396.20;;;7.14;83.99
75555;BME280;66087;53.126;17.960;2023-04-08T01:12:07;101396.51;;;7.07;84.05
75555;BME280;66087;53.126;17.960;2023-04-08T01:14:38;101394.80;;;7.01;84.10
75555;BME280;66087;53.126;17.960;2023-04-08T01:17:08;101397.70;;;6.92;84.32
75555;BME280;66087;53.126;17.960;2023-04-08T01:19:38;101398.84;;;6.86;84.36
75555;BME280;66087;53.126;17.960;2023-04-08T01:24:58;101407.95;;;6.75;84.21
75555;BME280;66087;53.126;17.960;2023-04-08T01:27:28;101405.08;;;6.64;84.48
75555;BME280;66087;53.126;17.960;2023-04-08T01:29:57;101409.03;;;6.60;84.48
75555;BME280;66087;53.126;17.960;2023-04-08T01:32:25;101412.15;;;6.52;84.68
75555;BME280;66087;53.126;17.960;2023-04-08T01:34:55;101413.37;;;6.46;84.59
75555;BME280;66087;53.126;17.960;2023-04-08T01:37:22;101412.48;;;6.39;84.50
75555;BME280;66087;53.126;17.960;2023-04-08T01:39:54;101416.41;;;6.34;84.59
75555;BME280;66087;53.126;17.960;2023-04-08T01:42:24;101416.80;;;6.30;84.68
75555;BME280;66087;53.126;17.960;2023-04-08T01:44:55;101415.03;;;6.26;84.89
75555;BME280;66087;53.126;17.960;2023-04-08T01:47:22;101410.75;;;6.24;84.92
75555;BME280;66087;53.126;17.960;2023-04-08T01:49:52;101414.00;;;6.21;84.88
75555;BME280;66087;53.126;17.960;2023-04-08T01:52:19;101419.59;;;6.18;84.85
75555;BME280;66087;53.126;17.960;2023-04-08T01:54:47;101421.77;;;6.14;84.93
75555;BME280;66087;53.126;17.960;2023-04-08T01:57:18;101418.79;;;6.07;84.93
75555;BME280;66087;53.126;17.960;2023-04-08T01:59:49;101424.82;;;6.08;84.91
75555;BME280;66087;53.126;17.960;2023-04-08T02:02:19;101425.43;;;6.04;84.87
75555;BME280;66087;53.126;17.960;2023-04-08T02:04:47;101430.14;;;6.00;84.92
75555;BME280;66087;53.126;17.960;2023-04-08T02:07:14;101431.34;;;5.96;85.20
75555;BME280;66087;53.126;17.960;2023-04-08T02:09:41;101432.91;;;5.94;85.18
75555;BME280;66087;53.126;17.960;2023-04-08T02:12:07;101436.17;;;5.92;85.17
75555;BME280;66087;53.126;17.960;2023-04-08T02:14:34;101436.73;;;5.89;85.28
75555;BME280;66087;53.126;17.960;2023-04-08T02:17:13;101441.58;;;5.85;85.16
75555;BME280;66087;53.126;17.960;2023-04-08T02:19:55;101440.70;;;5.80;85.14
75555;BME280;66087;53.126;17.960;2023-04-08T02:22:30;101442.55;;;5.76;85.30
75555;BME280;66087;53.126;17.960;2023-04-08T02:25:03;101438.77;;;5.72;85.24
75555;BME280;66087;53.126;17.960;2023-04-08T02:27:33;101444.34;;;5.69;85.33
75555;BME280;66087;53.126;17.960;2023-04-08T02:30:02;101444.51;;;5.66;85.46
75555;BME280;66087;53.126;17.960;2023-04-08T02:32:31;101446.52;;;5.63;85.52
75555;BME280;66087;53.126;17.960;2023-04-08T02:35:00;101445.91;;;5.59;85.59
75555;BME280;66087;53.126;17.960;2023-04-08T02:37:27;101445.52;;;5.56;85.58
75555;BME280;66087;53.126;17.960;2023-04-08T02:39:54;101448.53;;;5.52;85.59
75555;BME280;66087;53.126;17.960;2023-04-08T02:42:21;101450.63;;;5.48;85.53
75555;BME280;66087;53.126;17.960;2023-04-08T02:44:47;101451.86;;;5.44;85.57
75555;BME280;66087;53.126;17.960;2023-04-08T02:47:14;101456.92;;;5.40;85.49
75555;BME280;66087;53.126;17.960;2023-04-08T02:49:42;101460.29;;;5.35;85.36
75555;BME280;66087;53.126;17.960;2023-04-08T02:52:08;101461.05;;;5.31;85.37
75555;BME280;66087;53.126;17.960;2023-04-08T02:54:35;101465.27;;;5.26;85.42
75555;BME280;66087;53.126;17.960;2023-04-08T02:57:02;101468.10;;;5.22;85.56
75555;BME280;66087;53.126;17.960;2023-04-08T02:59:28;101475.21;;;5.20;85.57
75555;BME280;66087;53.126;17.960;2023-04-08T03:01:57;101479.09;;;5.18;85.82
75555;BME280;66087;53.126;17.960;2023-04-08T03:04:24;101477.18;;;5.15;85.56
75555;BME280;66087;53.126;17.960;2023-04-08T03:06:50;101478.72;;;5.12;85.42
75555;BME280;66087;53.126;17.960;2023-04-08T03:09:17;101479.09;;;5.08;85.65
75555;BME280;66087;53.126;17.960;2023-04-08T03:11:43;101483.69;;;5.03;85.48
75555;BME280;66087;53.126;17.960;2023-04-08T03:14:10;101488.14;;;4.99;85.38
75555;BME280;66087;53.126;17.960;2023-04-08T03:16:36;101486.41;;;4.94;85.48
75555;BME280;66087;53.126;17.960;2023-04-08T03:19:03;101488.90;;;4.92;85.43
75555;BME280;66087;53.126;17.960;2023-04-08T03:21:29;101488.48;;;4.91;85.67
75555;BME280;66087;53.126;17.960;2023-04-08T03:23:57;101488.48;;;4.91;85.86
75555;BME280;66087;53.126;17.960;2023-04-08T03:26:23;101487.77;;;4.90;85.83
75555;BME280;66087;53.126;17.960;2023-04-08T03:28:52;101486.73;;;4.88;85.78
75555;BME280;66087;53.126;17.960;2023-04-08T03:31:19;101490.38;;;4.87;85.82
75555;BME280;66087;53.126;17.960;2023-04-08T03:33:46;101484.55;;;4.81;85.73
75555;BME280;66087;53.126;17.960;2023-04-08T03:36:13;101494.59;;;4.79;85.53
75555;BME280;66087;53.126;17.960;2023-04-08T03:38:40;101496.60;;;4.74;85.42
75555;BME280;66087;53.126;17.960;2023-04-08T03:41:06;101496.36;;;4.70;85.47
75555;BME280;66087;53.126;17.960;2023-04-08T03:43:33;101496.92;;;4.68;85.60
75555;BME280;66087;53.126;17.960;2023-04-08T03:45:59;101497.03;;;4.66;85.46
75555;BME280;66087;53.126;17.960;2023-04-08T03:48:26;101498.98;;;4.61;85.38
75555;BME280;66087;53.126;17.960;2023-04-08T03:50:53;101501.36;;;4.58;85.27
75555;BME280;66087;53.126;17.960;2023-04-08T03:53:19;101505.10;;;4.53;85.17
75555;BME280;66087;53.126;17.960;2023-04-08T03:55:48;101504.46;;;4.49;85.32
75555;BME280;66087;53.126;17.960;2023-04-08T03:58:16;101510.79;;;4.47;85.16
75555;BME280;66087;53.126;17.960;2023-04-08T04:00:43;101511.85;;;4.43;85.16
75555;BME280;66087;53.126;17.960;2023-04-08T04:03:09;101514.23;;;4.40;85.42
75555;BME280;66087;53.126;17.960;2023-04-08T04:05:39;101510.71;;;4.41;85.63
75555;BME280;66087;53.126;17.960;2023-04-08T04:08:06;101513.05;;;4.42;85.45
75555;BME280;66087;53.126;17.960;2023-04-08T04:10:35;101513.16;;;4.44;85.64
75555;BME280;66087;53.126;17.960;2023-04-08T04:13:01;101518.27;;;4.45;85.65
75555;BME280;66087;53.126;17.960;2023-04-08T04:15:28;101519.52;;;4.45;85.78
75555;BME280;66087;53.126;17.960;2023-04-08T04:17:54;101518.69;;;4.43;85.46
75555;BME280;66087;53.126;17.960;2023-04-08T04:20:21;101522.05;;;4.42;85.20
75555;BME280;66087;53.126;17.960;2023-04-08T04:22:47;101523.58;;;4.39;85.21
75555;BME280;66087;53.126;17.960;2023-04-08T04:25:14;101524.13;;;4.36;85.19
75555;BME280;66087;53.126;17.960;2023-04-08T04:27:41;101530.54;;;4.34;85.10
75555;BME280;66087;53.126;17.960;2023-04-08T04:30:07;101530.46;;;4.32;85.11
75555;BME280;66087;53.126;17.960;2023-04-08T04:32:34;101533.27;;;4.30;85.21
75555;BME280;66087;53.126;17.960;2023-04-08T04:35:01;101537.74;;;4.30;85.28
75555;BME280;66087;53.126;17.960;2023-04-08T04:37:28;101539.27;;;4.33;85.32
75555;BME280;66087;53.126;17.960;2023-04-08T04:39:54;101542.70;;;4.37;85.07
75555;BME280;66087;53.126;17.960;2023-04-08T04:42:21;101546.45;;;4.37;84.98
75555;BME280;66087;53.126;17.960;2023-04-08T04:44:48;101548.55;;;4.37;84.83
75555;BME280;66087;53.126;17.960;2023-04-08T04:47:14;101550.09;;;4.41;84.79
75555;BME280;66087;53.126;17.960;2023-04-08T04:49:41;101554.73;;;4.42;84.55
75555;BME280;66087;53.126;17.960;2023-04-08T04:52:08;101555.17;;;4.38;84.69
75555;BME280;66087;53.126;17.960;2023-04-08T04:54:35;101555.86;;;4.35;84.59
75555;BME280;66087;53.126;17.960;2023-04-08T04:57:01;101555.64;;;4.32;84.58
75555;BME280;66087;53.126;17.960;2023-04-08T04:59:28;101559.75;;;4.31;84.46
75555;BME280;66087;53.126;17.960;2023-04-08T05:01:55;101563.69;;;4.32;84.69
75555;BME280;66087;53.126;17.960;2023-04-08T05:04:23;101567.56;;;4.32;84.68
75555;BME280;66087;53.126;17.960;2023-04-08T05:06:50;101568.14;;;4.33;84.67
75555;BME280;66087;53.126;17.960;2023-04-08T05:09:17;101571.00;;;4.34;84.62
75555;BME280;66087;53.126;17.960;2023-04-08T05:11:43;101572.52;;;4.34;84.89
75555;BME280;66087;53.126;17.960;2023-04-08T05:14:10;101575.39;;;4.34;84.88
75555;BME280;66087;53.126;17.960;2023-04-08T05:16:37;101578.82;;;4.36;85.05
75555;BME280;66087;53.126;17.960;2023-04-08T05:19:04;101580.45;;;4.37;85.02
75555;BME280;66087;53.126;17.960;2023-04-08T05:21:31;101580.84;;;4.40;85.04
75555;BME280;66087;53.126;17.960;2023-04-08T05:23:58;101584.10;;;4.43;85.01
75555;BME280;66087;53.126;17.960;2023-04-08T05:26:24;101585.81;;;4.47;85.12
75555;BME280;66087;53.126;17.960;2023-04-08T05:28:51;101588.92;;;4.51;84.82
75555;BME280;66087;53.126;17.960;2023-04-08T05:31:18;101589.30;;;4.57;84.89
75555;BME280;66087;53.126;17.960;2023-04-08T05:33:46;101593.15;;;4.66;84.89
75555;BME280;66087;53.126;17.960;2023-04-08T05:36:13;101595.55;;;4.75;84.81
75555;BME280;66087;53.126;17.960;2023-04-08T05:38:40;101594.94;;;4.87;84.76
75555;BME280;66087;53.126;17.960;2023-04-08T05:41:09;101595.51;;;4.97;84.98
75555;BME280;66087;53.126;17.960;2023-04-08T05:43:36;101596.41;;;5.06;85.23
75555;BME280;66087;53.126;17.960;2023-04-08T05:46:07;101596.48;;;5.11;85.18
75555;BME280;66087;53.126;17.960;2023-04-08T05:48:34;101598.52;;;5.19;85.17
75555;BME280;66087;53.126;17.960;2023-04-08T05:51:01;101598.88;;;5.24;85.23
75555;BME280;66087;53.126;17.960;2023-04-08T05:53:28;101600.80;;;5.33;85.33
75555;BME280;66087;53.126;17.960;2023-04-08T05:55:55;101605.73;;;5.41;85.22
75555;BME280;66087;53.126;17.960;2023-04-08T05:58:22;101606.61;;;5.48;85.04
75555;BME280;66087;53.126;17.960;2023-04-08T06:00:48;101609.17;;;5.56;85.02
75555;BME280;66087;53.126;17.960;2023-04-08T06:03:15;101615.99;;;5.64;84.89
75555;BME280;66087;53.126;17.960;2023-04-08T06:05:42;101615.04;;;5.73;84.69
75555;BME280;66087;53.126;17.960;2023-04-08T06:08:08;101617.11;;;5.79;84.50
75555;BME280;66087;53.126;17.960;2023-04-08T06:10:35;101618.94;;;5.87;84.50
75555;BME280;66087;53.126;17.960;2023-04-08T06:13:02;101621.01;;;5.94;84.32
75555;BME280;66087;53.126;17.960;2023-04-08T06:15:28;101627.05;;;6.02;84.10
75555;BME280;66087;53.126;17.960;2023-04-08T06:17:55;101627.97;;;6.09;83.93
75555;BME280;66087;53.126;17.960;2023-04-08T06:20:22;101625.92;;;6.14;83.84
75555;BME280;66087;53.126;17.960;2023-04-08T06:22:49;101632.23;;;6.21;83.80
75555;BME280;66087;53.126;17.960;2023-04-08T06:25:16;101635.87;;;6.29;83.88
75555;BME280;66087;53.126;17.960;2023-04-08T06:27:43;101635.98;;;6.35;83.48
75555;BME280;66087;53.126;17.960;2023-04-08T06:30:10;101644.77;;;6.41;83.34
75555;BME280;66087;53.126;17.960;2023-04-08T06:32:36;101646.46;;;6.45;83.22
75555;BME280;66087;53.126;17.960;2023-04-08T06:35:03;101647.48;;;6.47;83.06
75555;BME280;66087;53.126;17.960;2023-04-08T06:37:30;101651.16;;;6.49;83.13
75555;BME280;66087;53.126;17.960;2023-04-08T06:39:56;101654.28;;;6.54;83.15
75555;BME280;66087;53.126;17.960;2023-04-08T06:42:23;101656.15;;;6.59;83.14
75555;BME280;66087;53.126;17.960;2023-04-08T06:45:00;101657.81;;;6.64;83.12
75555;BME280;66087;53.126;17.960;2023-04-08T06:47:27;101658.39;;;6.67;82.82
75555;BME280;66087;53.126;17.960;2023-04-08T06:49:54;101662.21;;;6.68;82.71
75555;BME280;66087;53.126;17.960;2023-04-08T06:52:21;101666.31;;;6.73;82.68
75555;BME280;66087;53.126;17.960;2023-04-08T06:54:47;101667.09;;;6.78;82.63
75555;BME280;66087;53.126;17.960;2023-04-08T06:57:14;101666.92;;;6.85;82.34
75555;BME280;66087;53.126;17.960;2023-04-08T06:59:40;101671.45;;;6.91;82.13
75555;BME280;66087;53.126;17.960;2023-04-08T07:02:07;101671.78;;;6.96;81.79
75555;BME280;66087;53.126;17.960;2023-04-08T07:04:34;101677.70;;;7.00;81.70
75555;BME280;66087;53.126;17.960;2023-04-08T07:07:00;101679.18;;;7.04;81.76
75555;BME280;66087;53.126;17.960;2023-04-08T07:09:27;101679.08;;;7.07;81.83
75555;BME280;66087;53.126;17.960;2023-04-08T07:11:55;101687.27;;;7.15;81.72
75555;BME280;66087;53.126;17.960;2023-04-08T07:14:22;101689.91;;;7.21;81.25
75555;BME280;66087;53.126;17.960;2023-04-08T07:16:49;101689.61;;;7.26;81.19
75555;BME280;66087;53.126;17.960;2023-04-08T07:19:16;101691.81;;;7.32;81.20
75555;BME280;66087;53.126;17.960;2023-04-08T07:21:42;101698.27;;;7.39;81.02
75555;BME280;66087;53.126;17.960;2023-04-08T07:24:09;101700.06;;;7.49;80.71
75555;BME280;66087;53.126;17.960;2023-04-08T07:26:37;101702.60;;;7.63;80.46
75555;BME280;66087;53.126;17.960;2023-04-08T07:29:03;101705.78;;;7.78;80.29
75555;BME280;66087;53.126;17.960;2023-04-08T07:31:30;101708.55;;;7.92;79.86
75555;BME280;66087;53.126;17.960;2023-04-08T07:33:57;101711.56;;;8.08;79.49
75555;BME280;66087;53.126;17.960;2023-04-08T07:36:23;101713.67;;;8.20;79.43
75555;BME280;66087;53.126;17.960;2023-04-08T07:38:50;101716.44;;;8.33;79.20
75555;BME280;66087;53.126;17.960;2023-04-08T07:41:17;101715.77;;;8.46;78.97
75555;BME280;66087;53.126;17.960;2023-04-08T07:43:44;101713.83;;;8.58;78.97
75555;BME280;66087;53.126;17.960;2023-04-08T07:46:10;101713.32;;;8.74;78.97
75555;BME280;66087;53.126;17.960;2023-04-08T07:48:37;101714.59;;;8.90;78.85
75555;BME280;66087;53.126;17.960;2023-04-08T07:51:06;101717.65;;;9.08;78.54
75555;BME280;66087;53.126;17.960;2023-04-08T07:53:34;101720.08;;;9.33;77.84
75555;BME280;66087;53.126;17.960;2023-04-08T07:56:01;101720.52;;;9.64;77.59
75555;BME280;66087;53.126;17.960;2023-04-08T07:58:31;101716.23;;;9.83;76.76
75555;BME280;66087;53.126;17.960;2023-04-08T08:00:58;101718.91;;;9.88;76.38
75555;BME280;66087;53.126;17.960;2023-04-08T08:03:24;101722.88;;;10.00;75.76
75555;BME280;66087;53.126;17.960;2023-04-08T08:05:51;101725.31;;;10.07;75.28
75555;BME280;66087;53.126;17.960;2023-04-08T08:08:18;101726.72;;;10.16;75.67
75555;BME280;66087;53.126;17.960;2023-04-08T08:10:44;101729.02;;;10.35;75.19
75555;BME280;66087;53.126;17.960;2023-04-08T08:13:11;101732.11;;;10.46;74.29
75555;BME280;66087;53.126;17.960;2023-04-08T08:15:42;101731.91;;;10.54;74.49
75555;BME280;66087;53.126;17.960;2023-04-08T08:18:08;101738.02;;;10.67;74.51
75555;BME280;66087;53.126;17.960;2023-04-08T08:20:35;101738.89;;;10.88;73.90
75555;BME280;66087;53.126;17.960;2023-04-08T08:23:02;101739.10;;;11.06;73.49
75555;BME280;66087;53.126;17.960;2023-04-08T08:25:28;101744.67;;;11.28;71.72
75555;BME280;66087;53.126;17.960;2023-04-08T08:27:55;101742.59;;;11.38;71.96
75555;BME280;66087;53.126;17.960;2023-04-08T08:30:22;101745.71;;;11.47;71.67
75555;BME280;66087;53.126;17.960;2023-04-08T08:32:49;101748.66;;;11.45;70.98
75555;BME280;66087;53.126;17.960;2023-04-08T08:35:17;101748.52;;;11.45;69.73
75555;BME280;66087;53.126;17.960;2023-04-08T08:37:44;101749.61;;;11.55;70.25
75555;BME280;66087;53.126;17.960;2023-04-08T08:40:11;101750.89;;;11.69;70.94
75555;BME280;66087;53.126;17.960;2023-04-08T08:42:38;101756.27;;;11.80;70.42
75555;BME280;66087;53.126;17.960;2023-04-08T08:45:06;101754.55;;;11.87;70.70
75555;BME280;66087;53.126;17.960;2023-04-08T08:47:33;101757.52;;;12.01;69.84
75555;BME280;66087;53.126;17.960;2023-04-08T08:50:00;101762.64;;;12.14;69.96
75555;BME280;66087;53.126;17.960;2023-04-08T08:52:26;101766.84;;;12.16;69.57
75555;BME280;66087;53.126;17.960;2023-04-08T08:54:57;101768.33;;;12.07;68.24
75555;BME280;66087;53.126;17.960;2023-04-08T08:57:24;101769.89;;;12.05;68.98
75555;BME280;66087;53.126;17.960;2023-04-08T08:59:52;101771.53;;;11.96;68.16
75555;BME280;66087;53.126;17.960;2023-04-08T09:02:29;101773.70;;;11.86;68.55
75555;BME280;66087;53.126;17.960;2023-04-08T09:05:00;101777.21;;;11.86;68.54
75555;BME280;66087;53.126;17.960;2023-04-08T09:07:29;101778.69;;;11.92;67.95
75555;BME280;66087;53.126;17.960;2023-04-08T09:09:57;101778.54;;;12.09;68.18
75555;BME280;66087;53.126;17.960;2023-04-08T09:12:25;101782.02;;;12.30;67.49
75555;BME280;66087;53.126;17.960;2023-04-08T09:15:05;101783.05;;;12.50;67.00
75555;BME280;66087;53.126;17.960;2023-04-08T09:17:37;101780.14;;;12.63;65.73
75555;BME280;66087;53.126;17.960;2023-04-08T09:20:07;101778.81;;;12.63;65.56
75555;BME280;66087;53.126;17.960;2023-04-08T09:22:54;101780.91;;;12.65;65.56
75555;BME280;66087;53.126;17.960;2023-04-08T09:25:26;101785.42;;;12.72;65.91
75555;BME280;66087;53.126;17.960;2023-04-08T09:27:53;101784.14;;;12.80;65.99
75555;BME280;66087;53.126;17.960;2023-04-08T09:30:23;101789.60;;;12.97;64.47
75555;BME280;66087;53.126;17.960;2023-04-08T09:32:53;101789.17;;;13.08;63.96
75555;BME280;66087;53.126;17.960;2023-04-08T09:35:21;101790.29;;;13.02;63.68
75555;BME280;66087;53.126;17.960;2023-04-08T09:37:49;101798.58;;;12.76;63.47
75555;BME280;66087;53.126;17.960;2023-04-08T09:40:17;101798.16;;;12.60;64.12
75555;BME280;66087;53.126;17.960;2023-04-08T09:42:46;101797.34;;;12.43;63.35
75555;BME280;66087;53.126;17.960;2023-04-08T09:45:15;101798.15;;;12.30;64.30
75555;BME280;66087;53.126;17.960;2023-04-08T09:48:01;101795.95;;;12.36;64.18
75555;BME280;66087;53.126;17.960;2023-04-08T09:50:31;101798.66;;;12.50;63.05
75555;BME280;66087;53.126;17.960;2023-04-08T09:53:03;101796.66;;;12.64;62.97
75555;BME280;66087;53.126;17.960;2023-04-08T09:55:35;101793.32;;;12.60;62.36
75555;BME280;66087;53.126;17.960;2023-04-08T09:58:10;101793.98;;;12.46;62.83
75555;BME280;66087;53.126;17.960;2023-04-08T10:00:46;101793.61;;;12.33;63.27
75555;BME280;66087;53.126;17.960;2023-04-08T10:03:28;101797.22;;;12.24;62.48
75555;BME280;66087;53.126;17.960;2023-04-08T10:05:57;101789.84;;;12.08;62.70
75555;BME280;66087;53.126;17.960;2023-04-08T10:08:26;101790.22;;;11.94;63.40
75555;BME280;66087;53.126;17.960;2023-04-08T10:10:54;101788.83;;;11.83;62.94
75555;BME280;66087;53.126;17.960;2023-04-08T10:13:23;101788.80;;;11.70;62.32
75555;BME280;66087;53.126;17.960;2023-04-08T10:16:18;101786.74;;;11.54;62.61
75555;BME280;66087;53.126;17.960;2023-04-08T10:18:47;101782.67;;;11.44;62.79
75555;BME280;66087;53.126;17.960;2023-04-08T10:21:36;101783.69;;;11.40;63.14
75555;BME280;66087;53.126;17.960;2023-04-08T10:24:06;101776.52;;;11.42;62.59
75555;BME280;66087;53.126;17.960;2023-04-08T10:26:36;101777.30;;;11.44;63.28
75555;BME280;66087;53.126;17.960;2023-04-08T10:29:29;101775.05;;;11.44;62.44
75555;BME280;66087;53.126;17.960;2023-04-08T10:31:56;101775.04;;;11.40;62.37
75555;BME280;66087;53.126;17.960;2023-04-08T10:34:24;101771.06;;;11.37;62.12
75555;BME280;66087;53.126;17.960;2023-04-08T10:36:53;101767.95;;;11.37;62.52
75555;BME280;66087;53.126;17.960;2023-04-08T10:39:21;101767.19;;;11.42;62.82
75555;BME280;66087;53.126;17.960;2023-04-08T10:41:49;101766.96;;;11.51;62.71
75555;BME280;66087;53.126;17.960;2023-04-08T10:44:20;101771.50;;;11.58;62.23
75555;BME280;66087;53.126;17.960;2023-04-08T10:46:48;101771.10;;;11.64;61.58
75555;BME280;66087;53.126;17.960;2023-04-08T10:49:16;101767.52;;;11.64;61.24
75555;BME280;66087;53.126;17.960;2023-04-08T10:51:44;101768.17;;;11.69;61.98
75555;BME280;66087;53.126;17.960;2023-04-08T10:54:14;101767.80;;;11.81;61.55
75555;BME280;66087;53.126;17.960;2023-04-08T10:56:45;101768.65;;;11.90;61.46
75555;BME280;66087;53.126;17.960;2023-04-08T10:59:13;101765.45;;;12.01;61.39
75555;BME280;66087;53.126;17.960;2023-04-08T11:01:44;101760.70;;;12.09;60.87
75555;BME280;66087;53.126;17.960;2023-04-08T11:04:14;101763.02;;;12.15;60.83
75555;BME280;66087;53.126;17.960;2023-04-08T11:06:42;101764.42;;;12.23;60.86
75555;BME280;66087;53.126;17.960;2023-04-08T11:09:09;101764.94;;;12.36;60.77
75555;BME280;66087;53.126;17.960;2023-04-08T11:11:36;101764.20;;;12.48;60.33
75555;BME280;66087;53.126;17.960;2023-04-08T11:14:03;101761.15;;;12.53;60.46
75555;BME280;66087;53.126;17.960;2023-04-08T11:16:31;101761.44;;;12.61;59.70
75555;BME280;66087;53.126;17.960;2023-04-08T11:18:58;101759.39;;;12.68;59.86
75555;BME280;66087;53.126;17.960;2023-04-08T11:21:25;101761.77;;;12.78;59.43
75555;BME280;66087;53.126;17.960;2023-04-08T11:23:55;101764.60;;;12.90;59.07
75555;BME280;66087;53.126;17.960;2023-04-08T11:26:22;101763.52;;;13.02;58.33
75555;BME280;66087;53.126;17.960;2023-04-08T11:28:49;101762.95;;;13.09;57.77
75555;BME280;66087;53.126;17.960;2023-04-08T11:31:17;101762.56;;;13.15;57.64
75555;BME280;66087;53.126;17.960;2023-04-08T11:33:46;101761.51;;;13.20;58.03
75555;BME280;66087;53.126;17.960;2023-04-08T11:36:16;101761.11;;;13.34;57.91
75555;BME280;66087;53.126;17.960;2023-04-08T11:38:44;101759.20;;;13.52;57.37
75555;BME280;66087;53.126;17.960;2023-04-08T11:41:10;101752.80;;;13.62;56.76
75555;BME280;66087;53.126;17.960;2023-04-08T11:43:37;101758.89;;;13.72;56.81
75555;BME280;66087;53.126;17.960;2023-04-08T11:46:09;101754.94;;;13.78;55.87
75555;BME280;66087;53.126;17.960;2023-04-08T11:48:37;101758.40;;;13.84;56.41
75555;BME280;66087;53.126;17.960;2023-04-08T11:51:05;101756.58;;;13.96;56.35
75555;BME280;66087;53.126;17.960;2023-04-08T11:53:35;101757.69;;;14.12;56.26
75555;BME280;66087;53.126;17.960;2023-04-08T11:56:15;101754.18;;;14.34;55.76
75555;BME280;66087;53.126;17.960;2023-04-08T11:58:42;101757.91;;;14.53;54.57
75555;BME280;66087;53.126;17.960;2023-04-08T12:01:08;101755.25;;;14.66;54.39
75555;BME280;66087;53.126;17.960;2023-04-08T12:03:35;101750.42;;;14.71;53.28
75555;BME280;66087;53.126;17.960;2023-04-08T12:06:02;101749.66;;;14.81;54.70
75555;BME280;66087;53.126;17.960;2023-04-08T12:08:32;101749.80;;;15.02;54.28
75555;BME280;66087;53.126;17.960;2023-04-08T12:10:59;101746.28;;;15.18;52.67
75555;BME280;66087;53.126;17.960;2023-04-08T12:13:25;101749.08;;;15.30;53.19
75555;BME280;66087;53.126;17.960;2023-04-08T12:15:53;101745.23;;;15.41;51.98
75555;BME280;66087;53.126;17.960;2023-04-08T12:18:19;101746.73;;;15.52;51.74
75555;BME280;66087;53.126;17.960;2023-04-08T12:20:46;101747.27;;;15.59;51.79
75555;BME280;66087;53.126;17.960;2023-04-08T12:23:12;101745.29;;;15.65;51.51
75555;BME280;66087;53.126;17.960;2023-04-08T12:25:39;101737.64;;;15.73;51.74
75555;BME280;66087;53.126;17.960;2023-04-08T12:28:06;101737.99;;;15.88;49.96
75555;BME280;66087;53.126;17.960;2023-04-08T12:30:34;101736.79;;;15.99;49.95
75555;BME280;66087;53.126;17.960;2023-04-08T12:33:02;101735.00;;;16.07;49.98
75555;BME280;66087;53.126;17.960;2023-04-08T12:35:28;101737.21;;;16.23;50.76
75555;BME280;66087;53.126;17.960;2023-04-08T12:37:55;101733.77;;;16.43;51.12
75555;BME280;66087;53.126;17.960;2023-04-08T12:40:22;101732.77;;;16.63;50.11
75555;BME280;66087;53.126;17.960;2023-04-08T12:42:49;101730.06;;;16.73;50.21
75555;BME280;66087;53.126;17.960;2023-04-08T12:45:17;101726.40;;;16.78;49.76
75555;BME280;66087;53.126;17.960;2023-04-08T12:47:43;101729.21;;;16.87;49.90
75555;BME280;66087;53.126;17.960;2023-04-08T12:50:10;101727.19;;;16.97;49.00
75555;BME280;66087;53.126;17.960;2023-04-08T12:52:37;101729.00;;;17.01;48.39
75555;BME280;66087;53.126;17.960;2023-04-08T12:55:04;101732.13;;;17.01;47.49